Nobility — D5AX9 — position and weather

sailwx.info

Track history (hours):
 
Tides and Currents Weather Stations Pressure Air Temp Water Temp Dewpoint Dewpoint Depression Visibility Wind Speed Wind Dir Waves Ship Positions

Nobility

Last reported at 2017-Oct-18 23:28 UTC. Time now 2017-Oct-19 00:01 UTC.
Position N 34°41' E 135°17'.

Length 146 m; draft 6.7 m.

Type: Ship (hazmat cat A). MMSI: 636015465.

Date/timePositionNaut miles runAvg speedWind from/ knotsBaromVisibWave heightAir tempDewpointWater temp
2017-Oct-18 23:28N 34°41' E 135°17'0 0.0
2017-Oct-18 22:58N 34°41' E 135°17'1 1.2
2017-Oct-18 22:30N 34°41' E 135°18'4 7.2
2017-Oct-18 21:59N 34°38' E 135°18'4 7.5
2017-Oct-18 21:30N 34°35' E 135°15'2 3.6
2017-Oct-18 21:00N 34°35' E 135°12'1 1.9
2017-Oct-18 20:30N 34°35' E 135°14'1 1.7
2017-Oct-18 20:00N 34°35' E 135°15'1 1.6
2017-Oct-18 19:30N 34°35' E 135°16'1 2.9
2017-Oct-18 19:01N 34°34' E 135°15'1 2.7
2017-Oct-18 18:30N 34°33' E 135°14'1 1.7
2017-Oct-18 18:00N 34°33' E 135°15'4 7.9
2017-Oct-18 17:30N 34°30' E 135°11'613.0
2017-Oct-18 17:00N 34°25' E 135°06'612.3
2017-Oct-18 16:30N 34°21' E 135°01'611.7
2017-Oct-18 16:00N 34°15' E 134°59'612.6
2017-Oct-18 15:31N 34°09' E 134°59'713.3
2017-Oct-18 15:01N 34°02' E 134°60'224 7.6
2017-Oct-17 09:32N 34°54' E 139°25'111.6
2017-Oct-17 09:30N 34°54' E 139°25'612.6
2017-Oct-17 09:00N 34°58' E 139°31'612.8
2017-Oct-17 08:30N 35°02' E 139°37'713.5
2017-Oct-17 08:00N 35°07' E 139°43'714.0
2017-Oct-17 07:30N 35°13' E 139°46'612.1
2017-Oct-17 07:00N 35°19' E 139°43'611.6
2017-Oct-17 06:30N 35°24' E 139°41'0 0.5
2017-Oct-17 05:59N 35°24' E 139°41'0 0.0
2017-Oct-17 05:26N 35°24' E 139°41'0 0.0
2017-Oct-17 04:59N 35°24' E 139°41'0 0.0
2017-Oct-17 04:29N 35°24' E 139°41'0 0.0
2017-Oct-17 03:59N 35°24' E 139°41'0 0.0
2017-Oct-17 03:14N 35°24' E 139°41'0 0.0
2017-Oct-17 02:59N 35°24' E 139°41'0 0.0
2017-Oct-17 02:29N 35°24' E 139°41'0 0.0
2017-Oct-17 01:56N 35°24' E 139°41'0 0.0
2017-Oct-17 01:26N 35°24' E 139°41'0 0.0
2017-Oct-17 00:59N 35°24' E 139°41'0 0.0
2017-Oct-17 00:29N 35°24' E 139°41'0 0.3
2017-Oct-17 00:01N 35°24' E 139°41'2 4.2
2017-Oct-16 23:30N 35°22' E 139°42'3 6.1
2017-Oct-16 23:00N 35°19' E 139°43'510.3
2017-Oct-16 22:30N 35°15' E 139°47'510.4
2017-Oct-16 22:01N 35°10' E 139°46'611.5
2017-Oct-16 21:30N 35°05' E 139°43'611.8
2017-Oct-16 21:00N 35°00' E 139°38'612.7
2017-Oct-16 20:30N 34°57' E 139°32'  
2017-Oct-12 08:32N 34°35' E 134°51'115.4
2017-Oct-12 08:29N 34°35' E 134°52'815.4
2017-Oct-12 08:00N 34°38' E 135°00'714.9
2017-Oct-12 07:30N 34°36' E 135°09'815.5
2017-Oct-12 07:00N 34°39' E 135°18'2 3.7
2017-Oct-12 06:29N 34°41' E 135°17'0 0.0
2017-Oct-12 05:53N 34°41' E 135°17'0 0.0
2017-Oct-12 05:29N 34°41' E 135°17'0 0.0
2017-Oct-12 04:59N 34°41' E 135°17'0 0.0
2017-Oct-12 04:29N 34°41' E 135°17'0 0.0
2017-Oct-12 03:59N 34°41' E 135°17'0 0.0
2017-Oct-12 03:23N 34°41' E 135°17'0 0.0
2017-Oct-12 02:59N 34°41' E 135°17'0 0.0
2017-Oct-12 02:29N 34°41' E 135°17'1 1.1
2017-Oct-12 02:00N 34°41' E 135°18'5 9.7
2017-Oct-12 01:30N 34°36' E 135°17'815.3
2017-Oct-12 01:00N 34°30' E 135°12'815.3
2017-Oct-12 00:30N 34°24' E 135°06'816.2
2017-Oct-12 00:00N 34°18' E 134°60'714.8
2017-Oct-11 23:31N 34°11' E 134°56'815.8
2017-Oct-11 23:00N 34°03' E 134°57'816.2
2017-Oct-11 22:30N 33°55' E 134°59'217 7.3
2017-Oct-10 16:40N 34°45' E 139°15'1111.7
2017-Oct-10 15:45N 34°53' E 139°23'412.9
2017-Oct-10 15:26N 34°56' E 139°27'613.5
2017-Oct-10 15:00N 34°59' E 139°32'1414.0
2017-Oct-10 14:00N 35°09' E 139°45'713.7
2017-Oct-10 13:30N 35°16' E 139°46'613.1
2017-Oct-10 13:00N 35°21' E 139°42'3 2.5
2017-Oct-10 11:49N 35°24' E 139°41'0 0.0
2017-Oct-10 11:25N 35°24' E 139°41'0 0.0
2017-Oct-10 10:43N 35°24' E 139°41'0 0.0
2017-Oct-10 10:25N 35°24' E 139°41'0 0.0
2017-Oct-10 09:08N 35°24' E 139°41'0 0.1
2017-Oct-10 09:00N 35°24' E 139°41'1 1.8
2017-Oct-10 08:29N 35°23' E 139°42'611.4
2017-Oct-10 08:00N 35°18' E 139°44'612.5
2017-Oct-10 07:30N 35°12' E 139°47'714.8
2017-Oct-10 07:00N 35°05' E 139°44'815.6
2017-Oct-10 06:31N 35°00' E 139°37'815.5
2017-Oct-10 06:00N 34°55' E 139°29'  
Track history (hours):
 
Tides and Currents Weather Stations Pressure Air Temp Water Temp Dewpoint Dewpoint Depression Visibility Wind Speed Wind Dir Waves Ship Positions

Nobility

Last reported at 2017-Oct-18 23:28 UTC. Time now 2017-Oct-19 00:01 UTC.
Position N 34°41' E 135°17'.

Length 146 m; draft 6.7 m.

Type: Ship (hazmat cat A). MMSI: 636015465.

Date/timePositionNaut miles runAvg speedWind from/ knotsBaromVisibWave heightAir tempDewpointWater temp
2017-Oct-18 23:28N 34°41' E 135°17'0 0.0
2017-Oct-18 22:58N 34°41' E 135°17'1 1.2
2017-Oct-18 22:30N 34°41' E 135°18'4 7.2
2017-Oct-18 21:59N 34°38' E 135°18'4 7.5
2017-Oct-18 21:30N 34°35' E 135°15'2 3.6
2017-Oct-18 21:00N 34°35' E 135°12'1 1.9
2017-Oct-18 20:30N 34°35' E 135°14'1 1.7
2017-Oct-18 20:00N 34°35' E 135°15'1 1.6
2017-Oct-18 19:30N 34°35' E 135°16'1 2.9
2017-Oct-18 19:01N 34°34' E 135°15'1 2.7
2017-Oct-18 18:30N 34°33' E 135°14'1 1.7
2017-Oct-18 18:00N 34°33' E 135°15'4 7.9
2017-Oct-18 17:30N 34°30' E 135°11'613.0
2017-Oct-18 17:00N 34°25' E 135°06'612.3
2017-Oct-18 16:30N 34°21' E 135°01'611.7
2017-Oct-18 16:00N 34°15' E 134°59'612.6
2017-Oct-18 15:31N 34°09' E 134°59'713.3
2017-Oct-18 15:01N 34°02' E 134°60'224 7.6
2017-Oct-17 09:32N 34°54' E 139°25'111.6
2017-Oct-17 09:30N 34°54' E 139°25'612.6
2017-Oct-17 09:00N 34°58' E 139°31'612.8
2017-Oct-17 08:30N 35°02' E 139°37'713.5
2017-Oct-17 08:00N 35°07' E 139°43'714.0
2017-Oct-17 07:30N 35°13' E 139°46'612.1
2017-Oct-17 07:00N 35°19' E 139°43'611.6
2017-Oct-17 06:30N 35°24' E 139°41'0 0.5
2017-Oct-17 05:59N 35°24' E 139°41'0 0.0
2017-Oct-17 05:26N 35°24' E 139°41'0 0.0
2017-Oct-17 04:59N 35°24' E 139°41'0 0.0
2017-Oct-17 04:29N 35°24' E 139°41'0 0.0
2017-Oct-17 03:59N 35°24' E 139°41'0 0.0
2017-Oct-17 03:14N 35°24' E 139°41'0 0.0
2017-Oct-17 02:59N 35°24' E 139°41'0 0.0
2017-Oct-17 02:29N 35°24' E 139°41'0 0.0
2017-Oct-17 01:56N 35°24' E 139°41'0 0.0
2017-Oct-17 01:26N 35°24' E 139°41'0 0.0
2017-Oct-17 00:59N 35°24' E 139°41'0 0.0
2017-Oct-17 00:29N 35°24' E 139°41'0 0.3
2017-Oct-17 00:01N 35°24' E 139°41'2 4.2
2017-Oct-16 23:30N 35°22' E 139°42'3 6.1
2017-Oct-16 23:00N 35°19' E 139°43'510.3
2017-Oct-16 22:30N 35°15' E 139°47'510.4
2017-Oct-16 22:01N 35°10' E 139°46'611.5
2017-Oct-16 21:30N 35°05' E 139°43'611.8
2017-Oct-16 21:00N 35°00' E 139°38'612.7
2017-Oct-16 20:30N 34°57' E 139°32'  
2017-Oct-12 08:32N 34°35' E 134°51'115.4
2017-Oct-12 08:29N 34°35' E 134°52'815.4
2017-Oct-12 08:00N 34°38' E 135°00'714.9
2017-Oct-12 07:30N 34°36' E 135°09'815.5
2017-Oct-12 07:00N 34°39' E 135°18'2 3.7
2017-Oct-12 06:29N 34°41' E 135°17'0 0.0
2017-Oct-12 05:53N 34°41' E 135°17'0 0.0
2017-Oct-12 05:29N 34°41' E 135°17'0 0.0
2017-Oct-12 04:59N 34°41' E 135°17'0 0.0
2017-Oct-12 04:29N 34°41' E 135°17'0 0.0
2017-Oct-12 03:59N 34°41' E 135°17'0 0.0
2017-Oct-12 03:23N 34°41' E 135°17'0 0.0
2017-Oct-12 02:59N 34°41' E 135°17'0 0.0
2017-Oct-12 02:29N 34°41' E 135°17'1 1.1
2017-Oct-12 02:00N 34°41' E 135°18'5 9.7
2017-Oct-12 01:30N 34°36' E 135°17'815.3
2017-Oct-12 01:00N 34°30' E 135°12'815.3
2017-Oct-12 00:30N 34°24' E 135°06'816.2
2017-Oct-12 00:00N 34°18' E 134°60'714.8
2017-Oct-11 23:31N 34°11' E 134°56'815.8
2017-Oct-11 23:00N 34°03' E 134°57'816.2
2017-Oct-11 22:30N 33°55' E 134°59'217 7.3
2017-Oct-10 16:40N 34°45' E 139°15'1111.7
2017-Oct-10 15:45N 34°53' E 139°23'412.9
2017-Oct-10 15:26N 34°56' E 139°27'613.5
2017-Oct-10 15:00N 34°59' E 139°32'1414.0
2017-Oct-10 14:00N 35°09' E 139°45'713.7
2017-Oct-10 13:30N 35°16' E 139°46'613.1
2017-Oct-10 13:00N 35°21' E 139°42'3 2.5
2017-Oct-10 11:49N 35°24' E 139°41'0 0.0
2017-Oct-10 11:25N 35°24' E 139°41'0 0.0
2017-Oct-10 10:43N 35°24' E 139°41'0 0.0
2017-Oct-10 10:25N 35°24' E 139°41'0 0.0
2017-Oct-10 09:08N 35°24' E 139°41'0 0.1
2017-Oct-10 09:00N 35°24' E 139°41'1 1.8
2017-Oct-10 08:29N 35°23' E 139°42'611.4
2017-Oct-10 08:00N 35°18' E 139°44'612.5
2017-Oct-10 07:30N 35°12' E 139°47'714.8
2017-Oct-10 07:00N 35°05' E 139°44'815.6
2017-Oct-10 06:31N 35°00' E 139°37'815.5
2017-Oct-10 06:00N 34°55' E 139°29'  

Dump ship's entire track history